Time;durP1;ratioP1;P1;durP2;ratioP2;P2;SDS_P1;SDS_P2;PMS_P1;PMS_P2;Temp;Humidity;BMP_temperature;BMP_pressure;BME280_temperature;BME280_humidity;BME280_pressure;Samples;Min_cycle;Max_cycle;Signal;HPM_P1;HPM_P2
2023/09/07 00:00:16;;;;;;;6.22;5.25;;;20.80;99.90;;;;;;5018218;28;20032;-55
2023/09/07 00:02:41;;;;;;;6.25;4.38;;;20.80;99.90;;;;;;5019784;28;20037;-56
2023/09/07 00:05:08;;;;;;;10.35;5.28;;;20.70;99.90;;;;;;5017360;28;20160;-57
2023/09/07 00:07:34;;;;;;;6.70;5.07;;;20.70;99.90;;;;;;5022513;28;20058;-54
2023/09/07 00:10:00;;;;;;;8.27;5.18;;;20.70;99.90;;;;;;5015677;28;20041;-55
2023/09/07 00:12:26;;;;;;;6.95;5.10;;;20.70;99.90;;;;;;5017816;28;20033;-57
2023/09/07 00:14:56;;;;;;;6.30;4.85;;;20.70;99.90;;;;;;5022378;28;20132;-57
2023/09/07 00:17:22;;;;;;;6.43;5.00;;;20.70;99.90;;;;;;5001938;28;20413;-56
2023/09/07 00:19:50;;;;;;;9.48;5.30;;;20.70;99.90;;;;;;5023012;28;20041;-57
2023/09/07 00:22:16;;;;;;;7.03;5.53;;;20.70;99.90;;;;;;5018044;28;20102;-58
2023/09/07 00:24:43;;;;;;;5.60;4.43;;;20.60;99.90;;;;;;5004097;28;20088;-57
2023/09/07 00:27:11;;;;;;;7.43;5.20;;;20.50;99.90;;;;;;5014874;28;20053;-57
2023/09/07 00:29:40;;;;;;;5.68;4.10;;;20.50;99.90;;;;;;4998543;28;20041;-56
2023/09/07 00:32:06;;;;;;;7.13;4.78;;;20.40;99.90;;;;;;5033501;28;20086;-56
2023/09/07 00:34:31;;;;;;;6.70;5.75;;;20.40;99.90;;;;;;5016941;28;20459;-57
2023/09/07 00:36:57;;;;;;;6.70;5.88;;;20.30;99.90;;;;;;5006929;28;20057;-56
2023/09/07 00:39:23;;;;;;;8.10;6.18;;;20.30;99.90;;;;;;5021696;28;20578;-56
2023/09/07 00:41:49;;;;;;;8.35;5.43;;;20.30;99.90;;;;;;5018265;28;20064;-54
2023/09/07 00:44:15;;;;;;;6.40;5.80;;;20.30;99.90;;;;;;5017398;28;20068;-54
2023/09/07 00:46:42;;;;;;;7.57;5.82;;;20.20;99.90;;;;;;5016676;28;20042;-53
2023/09/07 00:49:08;;;;;;;6.60;5.90;;;20.20;99.90;;;;;;5014811;28;20029;-56
2023/09/07 00:51:34;;;;;;;8.88;5.85;;;20.10;99.90;;;;;;5024543;28;20664;-57
2023/09/07 00:54:00;;;;;;;5.78;5.18;;;20.10;99.90;;;;;;5011606;28;20476;-56
2023/09/07 00:56:26;;;;;;;8.18;6.38;;;20.10;99.90;;;;;;5021133;28;20038;-56
2023/09/07 00:58:54;;;;;;;5.55;4.30;;;20.10;99.90;;;;;;5056301;28;20576;-56
2023/09/07 01:01:21;;;;;;;7.13;5.25;;;20.10;99.90;;;;;;5022022;28;20073;-56
2023/09/07 01:03:47;;;;;;;6.85;5.45;;;20.00;99.90;;;;;;5010623;28;20045;-55
2023/09/07 01:06:22;;;;;;;6.57;5.82;;;20.00;99.90;;;;;;5019450;28;20404;-55
2023/09/07 01:08:56;;;;;;;6.00;4.95;;;19.90;99.90;;;;;;5020197;28;20099;-56
2023/09/07 01:11:25;;;;;;;8.32;6.20;;;19.80;99.90;;;;;;5021018;28;20098;-55
2023/09/07 01:13:53;;;;;;;7.60;5.90;;;19.80;99.90;;;;;;5003896;28;20042;-56
2023/09/07 01:16:20;;;;;;;6.75;6.00;;;19.80;99.90;;;;;;5016245;28;20041;-55
2023/09/07 01:18:47;;;;;;;7.28;5.70;;;19.70;99.90;;;;;;4999042;28;20042;-55
2023/09/07 01:21:13;;;;;;;6.43;5.78;;;19.70;99.90;;;;;;5014251;28;20045;-55
2023/09/07 01:23:43;;;;;;;6.88;5.78;;;19.60;99.90;;;;;;4983501;28;20098;-56
2023/09/07 01:26:11;;;;;;;7.28;6.22;;;19.60;99.90;;;;;;5030444;28;20045;-55
2023/09/07 01:28:37;;;;;;;7.38;5.57;;;19.60;99.90;;;;;;5030575;28;20037;-55
2023/09/07 01:31:04;;;;;;;8.45;5.88;;;19.60;99.90;;;;;;5017250;28;20496;-55
2023/09/07 01:33:30;;;;;;;7.30;5.55;;;19.50;99.90;;;;;;5018803;28;20045;-56
2023/09/07 01:35:56;;;;;;;7.50;5.75;;;19.50;99.90;;;;;;5018724;28;20038;-56
2023/09/07 01:38:22;;;;;;;6.75;4.63;;;19.50;99.90;;;;;;5016330;28;20513;-52
2023/09/07 01:40:47;;;;;;;6.68;5.18;;;19.40;99.90;;;;;;5017515;28;20517;-53
2023/09/07 01:43:13;;;;;;;4.95;4.20;;;19.40;99.90;;;;;;5016825;28;20040;-55
2023/09/07 01:45:39;;;;;;;6.90;5.20;;;19.30;99.90;;;;;;5017299;28;20053;-56
2023/09/07 01:48:14;;;;;;;10.07;5.75;;;19.30;99.90;;;;;;5016200;28;20547;-55
2023/09/07 01:50:39;;;;;;;6.15;5.43;;;19.30;99.90;;;;;;5014915;28;20444;-55
2023/09/07 01:53:05;;;;;;;8.25;5.03;;;19.30;99.90;;;;;;4996556;28;20049;-55
2023/09/07 01:55:32;;;;;;;7.13;4.90;;;19.20;99.90;;;;;;5020525;28;20065;-54
2023/09/07 01:57:57;;;;;;;6.72;5.15;;;19.20;99.90;;;;;;5022952;28;20041;-55
2023/09/07 02:00:23;;;;;;;5.88;4.65;;;19.20;99.90;;;;;;5016209;28;20497;-55
2023/09/07 02:02:49;;;;;;;5.40;4.82;;;19.20;99.90;;;;;;5020676;28;20500;-56
2023/09/07 02:05:15;;;;;;;6.57;5.07;;;19.20;99.90;;;;;;5019223;28;20038;-55
2023/09/07 02:07:41;;;;;;;7.15;5.18;;;19.20;99.90;;;;;;5018405;28;20397;-54
2023/09/07 02:10:07;;;;;;;8.18;6.07;;;19.20;99.90;;;;;;5020269;28;20348;-54
2023/09/07 02:12:32;;;;;;;6.95;5.35;;;19.30;99.90;;;;;;5020948;28;22288;-55
2023/09/07 02:15:01;;;;;;;6.40;5.03;;;19.30;99.90;;;;;;5019877;28;20053;-55
2023/09/07 02:17:26;;;;;;;8.25;6.40;;;19.20;99.90;;;;;;5015290;28;20077;-53
2023/09/07 02:19:52;;;;;;;5.40;4.80;;;19.20;99.90;;;;;;5020412;28;20464;-55
2023/09/07 02:22:17;;;;;;;8.02;6.20;;;19.20;99.90;;;;;;5016690;28;20083;-57
2023/09/07 02:24:43;;;;;;;9.07;6.10;;;19.20;99.90;;;;;;5018659;28;20087;-53
2023/09/07 02:27:09;;;;;;;7.00;5.53;;;19.20;99.90;;;;;;5031784;28;20100;-54
2023/09/07 02:29:35;;;;;;;8.50;6.03;;;19.20;99.90;;;;;;5015040;28;20037;-54
2023/09/07 02:32:00;;;;;;;6.95;5.32;;;19.10;99.90;;;;;;5016542;28;20360;-55
2023/09/07 02:34:26;;;;;;;6.78;5.22;;;19.10;99.90;;;;;;5016278;28;20038;-54
2023/09/07 02:36:52;;;;;;;8.25;5.25;;;19.00;99.90;;;;;;5019702;28;20092;-55
2023/09/07 02:39:18;;;;;;;7.28;5.80;;;19.00;99.90;;;;;;5021986;28;20049;-55
2023/09/07 02:41:45;;;;;;;6.57;4.75;;;19.00;99.90;;;;;;5025046;28;20080;-54
2023/09/07 02:44:11;;;;;;;9.07;6.40;;;18.90;99.90;;;;;;5021607;28;20401;-53
2023/09/07 02:46:36;;;;;;;9.63;5.05;;;18.90;99.90;;;;;;5018020;28;20048;-55
2023/09/07 02:49:03;;;;;;;9.25;5.22;;;18.90;99.90;;;;;;5004446;28;20475;-54
2023/09/07 02:51:28;;;;;;;6.55;5.05;;;18.80;99.90;;;;;;5020213;28;20046;-55
2023/09/07 02:53:56;;;;;;;6.95;5.10;;;18.80;99.90;;;;;;4996007;28;20052;-55
2023/09/07 02:56:22;;;;;;;6.28;4.40;;;18.80;99.90;;;;;;5020319;28;20088;-52
2023/09/07 02:58:48;;;;;;;7.45;5.53;;;18.80;99.90;;;;;;5025068;28;20497;-54
2023/09/07 03:01:13;;;;;;;8.85;5.95;;;18.80;99.90;;;;;;5021298;28;20045;-53
2023/09/07 03:03:41;;;;;;;7.82;5.57;;;18.70;99.90;;;;;;5018812;28;20043;-54
2023/09/07 03:06:11;;;;;;;8.65;5.97;;;18.70;99.90;;;;;;5026104;28;20095;-56
2023/09/07 03:08:37;;;;;;;8.90;5.55;;;18.70;99.90;;;;;;5012343;28;20040;-55
2023/09/07 03:11:04;;;;;;;7.53;5.82;;;18.70;99.90;;;;;;5030397;28;20045;-54
2023/09/07 03:13:30;;;;;;;6.65;5.43;;;18.60;99.90;;;;;;5015115;28;20199;-54
2023/09/07 03:15:56;;;;;;;5.90;5.30;;;18.50;99.90;;;;;;5020109;28;20044;-54
2023/09/07 03:18:22;;;;;;;7.30;6.35;;;18.50;99.90;;;;;;5017495;28;20041;-56
2023/09/07 03:20:49;;;;;;;6.50;4.57;;;18.50;99.90;;;;;;5016260;28;20536;-55
2023/09/07 03:23:15;;;;;;;8.00;6.50;;;18.40;99.90;;;;;;5024396;28;20146;-53
2023/09/07 03:25:40;;;;;;;8.55;5.68;;;18.40;99.90;;;;;;5019371;28;20302;-52
2023/09/07 03:28:06;;;;;;;8.32;6.35;;;18.40;99.90;;;;;;5019434;28;20494;-53
2023/09/07 03:30:33;;;;;;;9.15;6.35;;;18.30;99.90;;;;;;5033661;28;20052;-55
2023/09/07 03:32:58;;;;;;;8.13;5.75;;;18.30;99.90;;;;;;5031078;28;20107;-53
2023/09/07 03:35:24;;;;;;;7.50;6.22;;;18.20;99.90;;;;;;5031196;28;20033;-55
2023/09/07 03:37:50;;;;;;;11.13;6.10;;;18.20;99.90;;;;;;5021780;28;20045;-56
2023/09/07 03:40:16;;;;;;;8.00;5.80;;;18.20;99.90;;;;;;5012083;28;20164;-54
2023/09/07 03:42:43;;;;;;;9.32;6.32;;;18.10;99.90;;;;;;5027428;28;20562;-54
2023/09/07 03:45:09;;;;;;;8.55;6.28;;;18.10;99.90;;;;;;5005547;28;20088;-55
2023/09/07 03:47:35;;;;;;;7.03;5.90;;;18.10;99.90;;;;;;5022441;28;20489;-54
2023/09/07 03:50:01;;;;;;;7.03;6.32;;;18.10;99.90;;;;;;5000306;28;20048;-56
2023/09/07 03:52:27;;;;;;;8.15;6.70;;;18.10;99.90;;;;;;5022590;28;20121;-53
2023/09/07 03:54:56;;;;;;;7.95;6.45;;;18.10;99.90;;;;;;5024083;28;20045;-56
2023/09/07 03:57:23;;;;;;;7.45;6.15;;;18.10;99.90;;;;;;5017167;28;20056;-54
2023/09/07 03:59:49;;;;;;;6.53;5.72;;;18.10;99.90;;;;;;5003575;28;20081;-56
2023/09/07 04:02:15;;;;;;;9.30;6.40;;;18.00;99.90;;;;;;5050415;28;20073;-55
2023/09/07 04:04:41;;;;;;;11.95;7.57;;;18.10;99.90;;;;;;5019886;28;20045;-55
2023/09/07 04:07:07;;;;;;;9.07;6.20;;;18.10;99.90;;;;;;5015580;28;20029;-53
2023/09/07 04:09:32;;;;;;;11.63;6.95;;;18.10;99.90;;;;;;5000736;28;20198;-56
2023/09/07 04:11:58;;;;;;;8.02;6.30;;;18.10;99.90;;;;;;4988692;28;20116;-55
2023/09/07 04:14:24;;;;;;;8.18;6.78;;;18.10;99.90;;;;;;5017783;28;20444;-54
2023/09/07 04:16:51;;;;;;;10.55;7.35;;;18.10;99.90;;;;;;5015735;28;20045;-55
2023/09/07 04:19:16;;;;;;;6.90;6.20;;;18.10;99.90;;;;;;5018342;28;20060;-55
2023/09/07 04:21:42;;;;;;;8.48;7.05;;;18.10;99.90;;;;;;5012269;28;20060;-55
2023/09/07 04:24:08;;;;;;;9.60;8.43;;;18.10;99.90;;;;;;4998891;28;20065;-55
2023/09/07 04:26:34;;;;;;;7.47;6.60;;;18.10;99.90;;;;;;5007835;28;20455;-55
2023/09/07 04:29:00;;;;;;;10.15;7.82;;;18.10;99.90;;;;;;5014582;28;20489;-55
2023/09/07 04:31:27;;;;;;;9.20;7.18;;;18.00;99.90;;;;;;5047447;28;20037;-54
2023/09/07 04:33:54;;;;;;;9.10;7.57;;;18.00;99.90;;;;;;5022885;28;20151;-55
2023/09/07 04:36:19;;;;;;;8.63;7.15;;;18.00;99.90;;;;;;5017891;28;20042;-54
2023/09/07 04:38:45;;;;;;;8.98;7.47;;;18.00;99.90;;;;;;5020139;28;20098;-55
2023/09/07 04:41:14;;;;;;;8.40;6.95;;;18.00;99.90;;;;;;5018729;28;20063;-55
2023/09/07 04:43:44;;;;;;;8.50;7.35;;;18.00;99.90;;;;;;5019886;28;20057;-55
2023/09/07 04:46:11;;;;;;;8.55;7.65;;;18.00;99.90;;;;;;5016529;28;20488;-55
2023/09/07 04:48:37;;;;;;;11.68;7.28;;;18.00;99.90;;;;;;5016981;28;20096;-56
2023/09/07 04:51:05;;;;;;;9.45;7.82;;;18.00;99.90;;;;;;5056339;28;20033;-55
2023/09/07 04:53:33;;;;;;;8.30;7.47;;;18.00;99.90;;;;;;5012648;28;20034;-54
2023/09/07 04:55:59;;;;;;;9.73;8.20;;;18.00;99.90;;;;;;5037753;28;20044;-54
2023/09/07 04:58:25;;;;;;;9.52;7.43;;;18.00;99.90;;;;;;5034927;28;20450;-53
2023/09/07 05:00:51;;;;;;;8.98;6.90;;;17.90;99.90;;;;;;5009513;28;20045;-55
2023/09/07 05:03:17;;;;;;;7.82;6.72;;;17.90;99.90;;;;;;5023485;28;20388;-53
2023/09/07 05:05:43;;;;;;;8.00;6.82;;;18.00;99.90;;;;;;5026237;28;20045;-52
2023/09/07 05:08:09;;;;;;;9.07;7.80;;;17.90;99.90;;;;;;5033549;28;20045;-54
2023/09/07 05:10:35;;;;;;;11.13;7.38;;;18.00;99.90;;;;;;5012357;28;20052;-55
2023/09/07 05:13:01;;;;;;;10.63;7.40;;;18.00;99.90;;;;;;5025651;28;20036;-52
2023/09/07 05:15:27;;;;;;;8.68;7.05;;;17.90;99.90;;;;;;5012726;28;20613;-56
2023/09/07 05:17:54;;;;;;;10.88;8.45;;;17.90;99.90;;;;;;5014865;28;20069;-56
2023/09/07 05:20:20;;;;;;;9.68;8.10;;;17.90;99.90;;;;;;5024466;28;20740;-56
2023/09/07 05:22:46;;;;;;;12.10;8.55;;;18.00;99.90;;;;;;4999258;28;20045;-54
2023/09/07 05:25:12;;;;;;;12.93;7.90;;;18.00;99.90;;;;;;5049719;28;20516;-54
2023/09/07 05:27:38;;;;;;;10.00;8.15;;;17.90;99.90;;;;;;5014132;28;20496;-55
2023/09/07 05:30:04;;;;;;;8.70;6.82;;;17.90;99.90;;;;;;5017945;28;20069;-52
2023/09/07 05:32:30;;;;;;;8.80;7.13;;;17.90;99.90;;;;;;5017290;28;20095;-56
2023/09/07 05:34:56;;;;;;;8.90;7.20;;;18.00;99.90;;;;;;5005694;28;20053;-55
2023/09/07 05:37:22;;;;;;;10.43;7.03;;;18.00;99.90;;;;;;5026666;28;20041;-56
2023/09/07 05:39:48;;;;;;;11.25;8.13;;;18.00;99.90;;;;;;5001095;28;20042;-54
2023/09/07 05:42:14;;;;;;;7.88;6.35;;;18.10;99.90;;;;;;5019276;28;20041;-56
2023/09/07 05:44:40;;;;;;;9.25;7.57;;;18.10;99.90;;;;;;5020089;28;20029;-56
2023/09/07 05:47:06;;;;;;;11.18;7.68;;;18.10;99.90;;;;;;5016361;28;20542;-56
2023/09/07 05:49:31;;;;;;;8.10;7.30;;;18.20;99.90;;;;;;5005528;28;20121;-55
2023/09/07 05:51:57;;;;;;;8.73;6.90;;;18.20;99.90;;;;;;5013458;28;20129;-55
2023/09/07 05:54:23;;;;;;;11.98;8.13;;;18.20;99.90;;;;;;5039520;28;20095;-56
2023/09/07 05:56:49;;;;;;;8.00;7.20;;;18.20;99.90;;;;;;5022478;28;20048;-55
2023/09/07 05:59:14;;;;;;;9.80;7.45;;;18.20;99.90;;;;;;5034166;28;20041;-56
2023/09/07 06:01:41;;;;;;;9.95;7.22;;;18.30;99.90;;;;;;5021819;28;20045;-55
2023/09/07 06:04:07;;;;;;;11.15;7.18;;;18.30;99.90;;;;;;5020473;28;20085;-56
2023/09/07 06:06:33;;;;;;;9.45;8.23;;;18.40;99.90;;;;;;5026146;28;20113;-56
2023/09/07 06:08:59;;;;;;;7.75;6.32;;;18.50;99.90;;;;;;5039382;28;20114;-54
2023/09/07 06:11:25;;;;;;;10.30;7.53;;;18.50;99.90;;;;;;5028943;28;20040;-56
2023/09/07 06:13:51;;;;;;;7.22;6.55;;;18.60;99.90;;;;;;5031548;28;20080;-55
2023/09/07 06:16:20;;;;;;;8.73;6.82;;;18.60;99.90;;;;;;5028306;28;20526;-56
2023/09/07 06:18:46;;;;;;;10.25;7.30;;;18.70;99.90;;;;;;5033797;28;20044;-55
2023/09/07 06:21:12;;;;;;;10.95;7.35;;;18.70;99.90;;;;;;5029498;28;20535;-56
2023/09/07 06:23:37;;;;;;;9.40;7.80;;;18.80;99.90;;;;;;5006300;28;20077;-55
2023/09/07 06:26:03;;;;;;;10.02;7.30;;;18.90;99.90;;;;;;5008875;28;20124;-53
2023/09/07 06:28:29;;;;;;;11.75;7.57;;;18.90;99.90;;;;;;5024485;28;20040;-57
2023/09/07 06:30:54;;;;;;;8.57;7.68;;;18.90;99.90;;;;;;5025119;28;20120;-56
2023/09/07 06:33:20;;;;;;;11.98;9.02;;;19.00;99.90;;;;;;5005544;28;20041;-54
2023/09/07 06:35:45;;;;;;;8.63;7.28;;;19.00;99.90;;;;;;5048403;28;20080;-56
2023/09/07 06:38:11;;;;;;;10.40;7.07;;;19.10;99.90;;;;;;5027422;28;20037;-57
2023/09/07 06:40:37;;;;;;;9.50;7.90;;;19.20;99.90;;;;;;5019137;28;20059;-58
2023/09/07 06:43:05;;;;;;;9.10;6.60;;;19.20;99.90;;;;;;5019792;28;20042;-56
2023/09/07 06:45:35;;;;;;;9.73;7.03;;;19.30;99.90;;;;;;5017615;28;20045;-56
2023/09/07 06:48:02;;;;;;;8.18;7.38;;;19.40;99.90;;;;;;5019648;28;20385;-55
2023/09/07 06:50:28;;;;;;;8.80;7.30;;;19.50;99.90;;;;;;5035356;28;20052;-55
2023/09/07 06:52:53;;;;;;;11.93;8.70;;;19.60;99.90;;;;;;5041900;28;20415;-58
2023/09/07 06:55:20;;;;;;;8.52;7.65;;;19.70;99.90;;;;;;5038035;28;20041;-56
2023/09/07 06:57:46;;;;;;;10.93;7.88;;;19.80;99.90;;;;;;5028179;28;20049;-55
2023/09/07 07:00:12;;;;;;;8.27;7.47;;;19.90;99.90;;;;;;5038188;28;20041;-56
2023/09/07 07:02:38;;;;;;;10.07;7.70;;;20.00;99.90;;;;;;5035616;28;20054;-57
2023/09/07 07:05:04;;;;;;;10.07;7.45;;;20.10;99.90;;;;;;5029828;28;20049;-56
2023/09/07 07:07:30;;;;;;;9.20;6.88;;;20.20;99.90;;;;;;5011303;28;20486;-56
2023/09/07 07:09:56;;;;;;;8.35;7.15;;;20.30;99.90;;;;;;5019413;28;20131;-55
2023/09/07 07:12:22;;;;;;;8.43;6.82;;;20.40;99.90;;;;;;5030953;28;20040;-54
2023/09/07 07:14:47;;;;;;;9.95;6.50;;;20.60;99.90;;;;;;5039572;28;20523;-55
2023/09/07 07:17:13;;;;;;;9.88;7.28;;;20.70;99.90;;;;;;5021507;28;20044;-55
2023/09/07 07:19:39;;;;;;;8.75;6.68;;;20.80;99.90;;;;;;5029099;28;20084;-56
2023/09/07 07:22:05;;;;;;;7.38;6.65;;;20.90;99.90;;;;;;5032106;28;20116;-56
2023/09/07 07:24:31;;;;;;;10.25;6.72;;;21.00;99.90;;;;;;5035301;28;20125;-55
2023/09/07 07:26:56;;;;;;;15.88;7.00;;;21.10;99.90;;;;;;5034549;28;20052;-55
2023/09/07 07:29:22;;;;;;;10.10;7.05;;;21.20;99.90;;;;;;5012493;28;20041;-58
2023/09/07 07:31:48;;;;;;;8.35;6.90;;;21.30;99.90;;;;;;5008925;28;20128;-58
2023/09/07 07:34:13;;;;;;;8.65;6.20;;;21.50;99.90;;;;;;5024945;28;20050;-54
2023/09/07 07:36:39;;;;;;;9.05;6.68;;;21.50;99.90;;;;;;5027676;28;20041;-54
2023/09/07 07:39:08;;;;;;;8.27;6.90;;;21.60;99.90;;;;;;5040960;28;20045;-54
2023/09/07 07:41:35;;;;;;;9.27;6.53;;;21.80;99.90;;;;;;5026089;28;20112;-56
2023/09/07 07:44:01;;;;;;;12.05;7.60;;;21.90;99.90;;;;;;5027091;28;20467;-58
2023/09/07 07:46:27;;;;;;;7.63;6.63;;;22.00;99.90;;;;;;5058894;28;20049;-56
2023/09/07 07:48:52;;;;;;;9.23;6.43;;;22.20;99.90;;;;;;5036698;28;20038;-56
2023/09/07 07:51:18;;;;;;;7.47;6.53;;;22.20;99.90;;;;;;5022223;28;20046;-56
2023/09/07 07:53:44;;;;;;;10.05;6.75;;;22.30;99.90;;;;;;5029152;28;20061;-55
2023/09/07 07:56:16;;;;;;;9.00;6.15;;;22.40;99.90;;;;;;5011185;28;20066;-52
2023/09/07 07:58:42;;;;;;;7.45;6.68;;;22.40;99.90;;;;;;5026596;28;20044;-57
2023/09/07 08:01:18;;;;;;;7.88;6.88;;;22.50;99.90;;;;;;5023282;28;20128;-55
2023/09/07 08:03:44;;;;;;;13.55;7.07;;;22.50;99.90;;;;;;5024400;28;20323;-55
2023/09/07 08:06:11;;;;;;;7.75;6.22;;;22.60;99.90;;;;;;5026906;28;20038;-54
2023/09/07 08:08:37;;;;;;;9.40;6.72;;;22.60;99.90;;;;;;5032359;28;20039;-55
2023/09/07 08:11:05;;;;;;;8.90;6.63;;;22.60;99.90;;;;;;5034074;28;20099;-56
2023/09/07 08:13:34;;;;;;;9.50;5.97;;;22.70;99.90;;;;;;5032331;28;20073;-57
2023/09/07 08:16:01;;;;;;;10.20;6.10;;;22.80;99.90;;;;;;5016044;28;20037;-52
2023/09/07 08:18:28;;;;;;;7.20;6.03;;;22.80;99.90;;;;;;5034995;28;20042;-53
2023/09/07 08:20:54;;;;;;;7.50;6.60;;;22.80;99.90;;;;;;5031655;28;20489;-53
2023/09/07 08:23:22;;;;;;;6.95;6.10;;;22.90;99.90;;;;;;5034323;28;20075;-56
2023/09/07 08:25:48;;;;;;;8.18;5.93;;;23.00;99.90;;;;;;5031417;28;20051;-57
2023/09/07 08:28:15;;;;;;;6.50;5.70;;;23.00;99.90;;;;;;5035146;28;20055;-53
2023/09/07 08:30:41;;;;;;;7.25;6.03;;;23.20;99.90;;;;;;5057303;28;20069;-53
2023/09/07 08:33:08;;;;;;;6.97;6.13;;;23.30;99.90;;;;;;5024711;28;20119;-54
2023/09/07 08:35:35;;;;;;;6.15;5.55;;;23.40;99.90;;;;;;5028556;28;20041;-55
2023/09/07 08:38:08;;;;;;;8.50;6.00;;;23.50;99.90;;;;;;5035817;28;20068;-54
2023/09/07 08:40:35;;;;;;;7.40;5.03;;;23.60;99.90;;;;;;5027640;28;20125;-57
2023/09/07 08:43:06;;;;;;;9.23;5.95;;;23.70;99.90;;;;;;5026286;28;20045;-57
2023/09/07 08:45:36;;;;;;;6.30;5.55;;;23.90;99.90;;;;;;5035914;28;20044;-55
2023/09/07 08:48:03;;;;;;;7.57;5.60;;;24.00;99.90;;;;;;5012161;28;20408;-53
2023/09/07 08:50:30;;;;;;;7.55;5.60;;;24.10;99.90;;;;;;5029149;28;20134;-55
2023/09/07 08:52:59;;;;;;;7.43;4.85;;;24.20;99.90;;;;;;5032528;28;20091;-56
2023/09/07 08:55:25;;;;;;;6.45;5.38;;;24.30;99.90;;;;;;5039027;28;20206;-55
2023/09/07 08:57:54;;;;;;;5.55;4.30;;;24.40;99.90;;;;;;5011430;28;20430;-56
2023/09/07 09:00:20;;;;;;;6.82;5.10;;;24.40;99.90;;;;;;5037764;28;20052;-54
2023/09/07 09:02:49;;;;;;;11.23;4.57;;;24.50;99.90;;;;;;5027182;28;20049;-55
2023/09/07 09:05:18;;;;;;;6.63;5.38;;;24.60;99.90;;;;;;5057757;28;20033;-58
2023/09/07 09:07:43;;;;;;;7.25;4.43;;;24.70;99.90;;;;;;5009287;28;20073;-54
2023/09/07 09:10:10;;;;;;;8.18;4.80;;;24.80;99.90;;;;;;5029252;28;20088;-54
2023/09/07 09:12:44;;;;;;;5.30;4.00;;;25.00;99.60;;;;;;5028777;28;20047;-53
2023/09/07 09:15:10;;;;;;;7.10;4.28;;;25.10;99.60;;;;;;5039643;28;20112;-56
2023/09/07 09:17:35;;;;;;;6.50;4.47;;;25.10;99.10;;;;;;5029880;28;20531;-59
2023/09/07 09:20:04;;;;;;;5.32;4.03;;;25.20;99.30;;;;;;5025534;28;20539;-56
2023/09/07 09:22:31;;;;;;;5.85;3.88;;;25.20;99.10;;;;;;5020006;28;20116;-54
2023/09/07 09:24:56;;;;;;;7.70;4.10;;;25.40;99.00;;;;;;5019209;28;20494;-55
2023/09/07 09:27:22;;;;;;;6.22;4.70;;;25.40;98.80;;;;;;5026902;28;20288;-54
2023/09/07 09:33:31;;;;;;;7.05;4.10;;;25.70;99.10;;;;;;5026060;28;20293;-57
2023/09/07 09:35:57;;;;;;;5.57;4.60;;;25.80;98.70;;;;;;5034007;28;20094;-55
2023/09/07 09:38:23;;;;;;;7.03;4.63;;;25.90;98.30;;;;;;5022780;28;20068;-56
2023/09/07 09:40:50;;;;;;;6.13;4.18;;;26.10;98.70;;;;;;5028846;28;20057;-54
2023/09/07 09:43:16;;;;;;;5.95;3.85;;;26.00;98.50;;;;;;5021531;28;20052;-54
2023/09/07 09:45:41;;;;;;;7.80;4.82;;;26.10;97.70;;;;;;5032075;28;20037;-58
2023/09/07 09:48:08;;;;;;;6.45;4.18;;;26.20;98.00;;;;;;5029911;28;20080;-56
2023/09/07 09:50:37;;;;;;;7.55;3.90;;;26.30;98.00;;;;;;5026439;28;20040;-57
2023/09/07 09:53:07;;;;;;;6.32;3.90;;;26.40;97.90;;;;;;5028508;28;20183;-59
2023/09/07 09:55:36;;;;;;;5.20;3.83;;;26.50;97.80;;;;;;5031248;28;20048;-55
2023/09/07 09:58:02;;;;;;;6.20;3.75;;;26.50;97.80;;;;;;5036385;28;20124;-58
2023/09/07 10:00:29;;;;;;;5.95;3.92;;;26.60;97.70;;;;;;5035908;28;20617;-55
2023/09/07 10:03:04;;;;;;;4.88;3.45;;;26.60;97.10;;;;;;5033833;28;20045;-56
2023/09/07 10:05:31;;;;;;;6.00;3.95;;;26.70;96.70;;;;;;5016311;28;20046;-55
2023/09/07 10:08:05;;;;;;;6.65;3.72;;;26.80;96.70;;;;;;5013638;28;20252;-54
2023/09/07 10:10:36;;;;;;;5.05;3.67;;;26.80;96.70;;;;;;5031908;28;20361;-58
2023/09/07 10:13:02;;;;;;;6.85;4.40;;;26.90;96.90;;;;;;5034712;28;20059;-55
2023/09/07 10:15:29;;;;;;;4.82;3.60;;;27.00;97.20;;;;;;5025651;28;20037;-54
2023/09/07 10:18:14;;;;;;;7.07;3.97;;;27.10;96.70;;;;;;5018221;28;20758;-55
2023/09/07 10:20:49;;;;;;;5.35;4.13;;;27.30;96.90;;;;;;5016730;28;20060;-58
2023/09/07 10:23:14;;;;;;;5.13;4.10;;;27.30;96.20;;;;;;5046718;28;20492;-51
2023/09/07 10:25:40;;;;;;;4.55;3.53;;;27.40;96.20;;;;;;5018036;28;20044;-55
2023/09/07 10:28:20;;;;;;;7.10;3.85;;;27.50;96.20;;;;;;5017315;28;20043;-55
2023/09/07 10:31:07;;;;;;;5.45;3.90;;;27.60;95.80;;;;;;5021094;28;20527;-57
2023/09/07 10:33:36;;;;;;;6.80;4.00;;;27.60;95.60;;;;;;5019641;28;20041;-56
2023/09/07 10:36:03;;;;;;;5.85;3.47;;;27.60;95.60;;;;;;5019242;28;20053;-58
2023/09/07 10:38:31;;;;;;;5.82;3.80;;;27.60;95.10;;;;;;5025357;28;20034;-59
2023/09/07 10:40:59;;;;;;;8.05;4.10;;;27.70;95.40;;;;;;5015385;28;20041;-57
2023/09/07 10:43:33;;;;;;;6.07;3.45;;;27.80;95.60;;;;;;5015367;28;20249;-57
2023/09/07 10:46:00;;;;;;;5.90;3.97;;;27.90;95.70;;;;;;5018658;28;20045;-56
2023/09/07 10:48:29;;;;;;;5.60;3.90;;;28.00;95.30;;;;;;5022870;28;20033;-57
2023/09/07 10:50:56;;;;;;;7.07;3.75;;;28.10;94.60;;;;;;5017372;28;20026;-56
2023/09/07 10:53:30;;;;;;;7.75;3.92;;;28.10;95.00;;;;;;5016058;28;20077;-61
2023/09/07 10:56:04;;;;;;;8.50;3.58;;;28.20;95.40;;;;;;5020971;28;20119;-58
2023/09/07 10:58:34;;;;;;;3.95;3.55;;;28.30;94.80;;;;;;5013810;28;20045;-56
2023/09/07 11:01:01;;;;;;;6.22;4.15;;;28.40;94.70;;;;;;5012983;28;20042;-53
2023/09/07 11:03:28;;;;;;;6.07;3.88;;;28.50;94.80;;;;;;5013284;28;20049;-57
2023/09/07 11:06:11;;;;;;;6.47;3.70;;;28.70;95.10;;;;;;5021743;28;20045;-54
2023/09/07 11:08:37;;;;;;;5.85;3.78;;;28.90;94.80;;;;;;5030839;28;20064;-52
2023/09/07 11:11:04;;;;;;;6.32;3.90;;;29.10;94.50;;;;;;5011006;28;20493;-52
2023/09/07 11:13:30;;;;;;;9.50;4.03;;;29.10;93.40;;;;;;5030073;28;20514;-58
2023/09/07 11:15:57;;;;;;;6.50;3.63;;;29.00;93.70;;;;;;5000155;28;20394;-58
2023/09/07 11:18:24;;;;;;;6.05;3.70;;;29.10;93.90;;;;;;5016376;28;20037;-55
2023/09/07 11:20:51;;;;;;;4.53;3.70;;;29.20;93.90;;;;;;5016990;28;20052;-55
2023/09/07 11:23:19;;;;;;;6.35;3.55;;;29.30;93.70;;;;;;5017951;28;20072;-53
2023/09/07 11:25:46;;;;;;;4.88;3.78;;;29.30;92.90;;;;;;5013991;28;21694;-55
2023/09/07 11:28:12;;;;;;;5.53;3.83;;;29.20;92.50;;;;;;5019810;28;20044;-58
2023/09/07 11:30:53;;;;;;;6.38;3.47;;;29.20;92.80;;;;;;5004233;28;20428;-57
2023/09/07 11:33:19;;;;;;;5.95;3.70;;;29.30;91.80;;;;;;5033947;28;20049;-53
2023/09/07 11:35:44;;;;;;;9.98;4.05;;;29.30;92.20;;;;;;5014906;28;20084;-57
2023/09/07 11:38:13;;;;;;;6.30;3.42;;;29.40;92.00;;;;;;5022704;28;20734;-56
2023/09/07 11:40:39;;;;;;;6.57;4.15;;;29.40;91.30;;;;;;5020191;28;21849;-58
2023/09/07 11:43:05;;;;;;;6.55;3.78;;;29.40;92.00;;;;;;5020632;28;21643;-56
2023/09/07 11:45:32;;;;;;;5.63;2.90;;;29.50;92.20;;;;;;5038860;28;20037;-55
2023/09/07 11:47:57;;;;;;;5.68;3.63;;;29.60;92.00;;;;;;5022430;28;20073;-56
2023/09/07 11:50:24;;;;;;;7.95;3.50;;;29.60;91.50;;;;;;5022603;28;20084;-54
2023/09/07 11:52:50;;;;;;;4.40;3.47;;;29.70;91.90;;;;;;5020575;28;20053;-56
2023/09/07 11:55:16;;;;;;;4.47;3.35;;;29.80;91.90;;;;;;5019150;28;20037;-59
2023/09/07 11:57:42;;;;;;;5.05;3.45;;;29.80;91.90;;;;;;5002666;28;20108;-58
2023/09/07 12:00:11;;;;;;;5.03;3.60;;;29.90;91.90;;;;;;5002710;28;20037;-55
2023/09/07 12:02:40;;;;;;;5.63;4.10;;;29.90;91.10;;;;;;5018638;28;20051;-57
2023/09/07 12:05:09;;;;;;;7.68;4.03;;;29.90;91.10;;;;;;5014973;28;20045;-56
2023/09/07 12:07:36;;;;;;;5.80;3.95;;;29.90;91.40;;;;;;5018733;28;20515;-59
2023/09/07 12:10:02;;;;;;;4.70;3.75;;;30.00;91.50;;;;;;5017069;28;20126;-58
2023/09/07 12:12:28;;;;;;;5.88;3.28;;;30.20;91.50;;;;;;5023882;28;20390;-55
2023/09/07 12:14:56;;;;;;;7.13;4.15;;;30.20;91.80;;;;;;4992230;28;20532;-57
2023/09/07 12:17:22;;;;;;;5.13;3.95;;;30.20;91.40;;;;;;5014749;28;20049;-55
2023/09/07 12:19:49;;;;;;;6.43;3.83;;;30.20;90.80;;;;;;5013391;28;20049;-57
2023/09/07 12:22:15;;;;;;;5.47;3.60;;;30.10;90.80;;;;;;5002569;28;20105;-57
2023/09/07 12:24:41;;;;;;;5.28;3.97;;;30.10;91.20;;;;;;5024631;28;20140;-58
2023/09/07 12:27:07;;;;;;;5.40;4.60;;;30.20;90.90;;;;;;5005828;28;20037;-58
2023/09/07 12:29:33;;;;;;;6.53;3.83;;;30.20;90.80;;;;;;5020847;28;20341;-56
2023/09/07 12:31:58;;;;;;;6.15;4.15;;;30.30;90.50;;;;;;5022936;28;20127;-57
2023/09/07 12:34:25;;;;;;;8.25;3.80;;;30.40;90.00;;;;;;5040751;28;20504;-55
2023/09/07 12:36:50;;;;;;;5.20;3.95;;;30.30;90.60;;;;;;5023958;28;20563;-54
2023/09/07 12:39:17;;;;;;;6.25;3.45;;;30.40;90.60;;;;;;5026069;28;20048;-57
2023/09/07 12:41:43;;;;;;;5.22;3.40;;;30.30;90.70;;;;;;5018332;23;20515;-55
2023/09/07 12:44:08;;;;;;;7.32;3.80;;;30.40;90.70;;;;;;5013904;28;20042;-54
2023/09/07 12:46:35;;;;;;;5.50;3.80;;;30.40;90.90;;;;;;5006075;28;20080;-54